createdAt,value
2023-07-03T00:00:19.932Z,10.82
2023-07-03T00:02:55.057Z,11.23
2023-07-03T00:05:23.217Z,10.85
2023-07-03T00:07:50.999Z,8.60
2023-07-03T00:10:19.095Z,8.57
2023-07-03T00:12:46.283Z,12.68
2023-07-03T00:15:14.761Z,11.57
2023-07-03T00:17:45.786Z,8.88
2023-07-03T00:20:16.704Z,9.10
2023-07-03T00:22:45.445Z,7.82
2023-07-03T00:25:13.017Z,9.20
2023-07-03T00:27:40.034Z,10.70
2023-07-03T00:30:12.112Z,7.75
2023-07-03T00:32:39.135Z,11.55
2023-07-03T00:35:08.072Z,7.63
2023-07-03T00:37:36.059Z,8.90
2023-07-03T00:40:05.648Z,9.27
2023-07-03T00:42:32.481Z,9.20
2023-07-03T00:45:00.201Z,8.52
2023-07-03T00:47:29.270Z,8.80
2023-07-03T00:49:56.498Z,10.70
2023-07-03T00:52:23.629Z,11.13
2023-07-03T00:54:51.141Z,7.93
2023-07-03T00:57:18.898Z,10.77
2023-07-03T00:59:46.528Z,12.35
2023-07-03T01:02:27.296Z,8.63
2023-07-03T01:05:19.103Z,9.02
2023-07-03T01:07:47.284Z,8.73
2023-07-03T01:10:19.982Z,7.57
2023-07-03T01:12:59.923Z,8.88
2023-07-03T01:15:31.518Z,9.90
2023-07-03T01:18:02.896Z,8.85
2023-07-03T01:20:35.399Z,8.70
2023-07-03T01:23:12.571Z,9.13
2023-07-03T01:25:43.485Z,12.95
2023-07-03T01:28:13.858Z,10.25
2023-07-03T01:30:43.463Z,10.73
2023-07-03T01:33:15.833Z,7.20
2023-07-03T01:35:43.333Z,7.82
2023-07-03T01:38:11.246Z,7.90
2023-07-03T01:40:40.439Z,16.20
2023-07-03T01:43:07.842Z,10.32
2023-07-03T01:45:40.723Z,10.63
2023-07-03T01:48:08.151Z,8.77
2023-07-03T01:50:37.845Z,8.02
2023-07-03T01:53:12.220Z,10.13
2023-07-03T01:55:47.680Z,7.68
2023-07-03T01:58:24.058Z,9.13
2023-07-03T02:00:56.437Z,14.48
2023-07-03T02:03:37.343Z,8.75
2023-07-03T02:06:15.284Z,8.32
2023-07-03T02:08:43.689Z,8.32
2023-07-03T02:11:23.139Z,7.72
2023-07-03T02:13:54.341Z,12.13
2023-07-03T02:16:25.702Z,9.75
2023-07-03T02:18:52.746Z,10.82
2023-07-03T02:21:19.628Z,7.35
2023-07-03T02:23:47.056Z,10.40
2023-07-03T02:26:15.413Z,10.20
2023-07-03T02:28:43.080Z,9.30
2023-07-03T02:31:12.323Z,9.52
2023-07-03T02:33:39.321Z,9.38
2023-07-03T02:36:07.165Z,17.02
2023-07-03T02:38:34.689Z,8.23
2023-07-03T02:41:03.516Z,9.15
2023-07-03T02:43:33.759Z,8.10
2023-07-03T02:46:11.043Z,8.85
2023-07-03T02:48:38.488Z,7.18
2023-07-03T02:51:08.963Z,7.20
2023-07-03T02:53:36.191Z,6.80
2023-07-03T02:56:10.163Z,12.23
2023-07-03T02:58:41.970Z,10.40
2023-07-03T03:01:12.596Z,13.93
2023-07-03T03:03:39.896Z,9.00
2023-07-03T03:06:08.220Z,7.50
2023-07-03T03:08:35.538Z,8.00
2023-07-03T03:11:04.404Z,13.32
2023-07-03T03:13:32.384Z,9.43
2023-07-03T03:16:00.327Z,11.32
2023-07-03T03:18:27.472Z,10.55
2023-07-03T03:20:54.898Z,12.43
2023-07-03T03:23:22.174Z,12.25
2023-07-03T03:25:49.454Z,14.90
2023-07-03T03:28:17.003Z,10.60
2023-07-03T03:30:44.498Z,8.43
2023-07-03T03:33:12.352Z,9.52
2023-07-03T03:35:39.468Z,11.38
2023-07-03T03:38:11.219Z,8.48
2023-07-03T03:40:38.462Z,9.70
2023-07-03T03:43:09.455Z,10.00
2023-07-03T03:45:39.517Z,7.25
2023-07-03T03:48:06.710Z,9.38
2023-07-03T03:50:33.873Z,12.35
2023-07-03T03:53:01.154Z,8.50
2023-07-03T03:55:28.504Z,9.60
2023-07-03T03:57:55.581Z,14.77
2023-07-03T04:00:23.085Z,10.00
2023-07-03T04:02:50.049Z,18.42
2023-07-03T04:05:17.171Z,13.55
2023-07-03T04:07:45.317Z,11.57
2023-07-03T04:10:12.727Z,8.23
2023-07-03T04:12:39.944Z,9.20
2023-07-03T04:15:08.798Z,11.00
2023-07-03T04:17:36.057Z,14.85
2023-07-03T04:20:07.796Z,9.35
2023-07-03T04:22:35.341Z,14.75
2023-07-03T04:25:03.495Z,19.90
2023-07-03T04:27:30.384Z,10.70
2023-07-03T04:29:57.643Z,11.45
2023-07-03T04:32:24.849Z,9.23
2023-07-03T04:34:51.856Z,14.73
2023-07-03T04:37:18.804Z,8.90
2023-07-03T04:39:45.707Z,11.90
2023-07-03T04:42:14.910Z,10.02
2023-07-03T04:44:43.904Z,11.13
2023-07-03T04:47:11.984Z,9.80
2023-07-03T04:49:38.920Z,10.82
2023-07-03T04:52:07.703Z,9.63
2023-07-03T04:54:34.789Z,12.50
2023-07-03T04:57:02.042Z,16.08
2023-07-03T04:59:29.380Z,13.82
2023-07-03T05:01:57.194Z,13.95
2023-07-03T05:04:25.151Z,16.25
2023-07-03T05:06:52.537Z,12.40
2023-07-03T05:09:19.631Z,11.13
2023-07-03T05:11:49.915Z,16.73
2023-07-03T05:14:17.610Z,13.90
2023-07-03T05:16:44.472Z,11.70
2023-07-03T05:19:11.519Z,12.52
2023-07-03T05:21:38.573Z,11.93
2023-07-03T05:24:05.741Z,11.57
2023-07-03T05:26:32.795Z,15.57
2023-07-03T05:28:59.876Z,11.95
2023-07-03T05:31:27.039Z,13.70
2023-07-03T05:33:53.988Z,12.98
2023-07-03T05:36:21.026Z,15.63
2023-07-03T05:38:47.900Z,11.85
2023-07-03T05:41:16.293Z,13.20
2023-07-03T05:43:43.300Z,12.20
2023-07-03T05:46:10.887Z,11.80
2023-07-03T05:48:37.834Z,12.02
2023-07-03T05:51:05.019Z,12.30
2023-07-03T05:53:31.953Z,11.23
2023-07-03T05:55:59.785Z,13.13
2023-07-03T05:58:28.193Z,11.45
2023-07-03T06:00:56.323Z,11.40
2023-07-03T06:03:26.049Z,12.48
2023-07-03T06:05:53.962Z,13.25
2023-07-03T06:08:21.089Z,11.20
2023-07-03T06:10:48.239Z,11.20
2023-07-03T06:13:15.559Z,13.77
2023-07-03T06:15:43.467Z,18.00
2023-07-03T06:18:10.760Z,12.52
2023-07-03T06:20:39.028Z,11.95
2023-07-03T06:23:07.523Z,11.13
2023-07-03T06:25:35.081Z,11.60
2023-07-03T06:28:02.201Z,11.30
2023-07-03T06:30:29.245Z,10.75
2023-07-03T06:32:56.325Z,14.90
2023-07-03T06:35:23.321Z,11.80
2023-07-03T06:37:53.630Z,13.43
2023-07-03T06:40:20.802Z,11.45
2023-07-03T06:42:47.855Z,11.23
2023-07-03T06:45:19.105Z,11.95
2023-07-03T06:47:46.258Z,12.10
2023-07-03T06:50:13.738Z,10.45
2023-07-03T06:52:43.579Z,10.55
2023-07-03T06:55:10.951Z,11.15
2023-07-03T06:57:38.130Z,10.85
2023-07-03T07:00:07.220Z,10.90
2023-07-03T07:02:34.768Z,12.38
2023-07-03T07:05:03.389Z,11.60
2023-07-03T07:07:31.149Z,10.82
2023-07-03T07:09:58.147Z,11.57
2023-07-03T07:12:25.379Z,10.50
2023-07-03T07:14:52.230Z,10.90
2023-07-03T07:17:19.227Z,10.20
2023-07-03T07:19:46.629Z,11.32
2023-07-03T07:22:13.779Z,12.73
2023-07-03T07:24:40.781Z,10.25
2023-07-03T07:27:08.998Z,10.38
2023-07-03T07:29:36.064Z,10.48
2023-07-03T07:32:03.090Z,11.93
2023-07-03T07:34:30.130Z,11.27
2023-07-03T07:36:57.218Z,15.65
2023-07-03T07:39:26.191Z,9.98
2023-07-03T07:41:53.356Z,12.95
2023-07-03T07:44:20.534Z,10.35
2023-07-03T07:46:47.783Z,9.73
2023-07-03T07:49:14.912Z,10.45
2023-07-03T07:51:42.184Z,10.50
2023-07-03T07:54:09.256Z,10.63
2023-07-03T07:56:36.329Z,10.57
2023-07-03T07:59:03.573Z,9.27
2023-07-03T08:01:31.044Z,9.95
2023-07-03T08:03:58.250Z,11.50
2023-07-03T08:06:25.592Z,11.05
2023-07-03T08:08:52.627Z,9.93
2023-07-03T08:11:19.886Z,9.75
2023-07-03T08:13:47.025Z,10.50
2023-07-03T08:16:16.687Z,14.70
2023-07-03T08:18:46.267Z,9.43
2023-07-03T08:21:14.864Z,9.90
2023-07-03T08:23:42.046Z,8.52
2023-07-03T08:26:18.601Z,9.13
2023-07-03T08:28:46.284Z,9.40
2023-07-03T08:31:13.356Z,9.07
2023-07-03T08:33:40.536Z,9.23
2023-07-03T08:38:38.168Z,9.45
2023-07-03T08:41:05.470Z,13.57
2023-07-03T08:43:39.150Z,9.65
2023-07-03T08:46:12.661Z,8.85
2023-07-03T08:48:41.782Z,9.48
2023-07-03T08:51:14.024Z,9.07
2023-07-03T08:53:44.574Z,8.98
2023-07-03T08:56:15.492Z,10.05
2023-07-03T08:58:43.149Z,8.75
2023-07-03T09:01:29.802Z,8.88
2023-07-03T09:04:34.252Z,9.43
2023-07-03T09:07:06.774Z,8.40
2023-07-03T09:10:00.416Z,11.00
2023-07-03T09:12:41.562Z,8.02
2023-07-03T09:15:19.980Z,8.10
2023-07-03T09:17:49.196Z,10.32
2023-07-03T09:20:17.650Z,9.60
2023-07-03T09:23:06.183Z,13.93
2023-07-03T09:25:47.169Z,10.30
2023-07-03T09:28:14.208Z,8.63
2023-07-03T09:30:41.407Z,8.73
2023-07-03T09:33:08.460Z,8.88
2023-07-03T09:35:37.770Z,8.00
2023-07-03T09:38:12.612Z,8.07
2023-07-03T09:40:43.431Z,8.00
2023-07-03T09:43:20.233Z,7.55
2023-07-03T09:45:48.391Z,7.35
2023-07-03T09:48:27.393Z,10.48
2023-07-03T09:51:05.647Z,7.80
2023-07-03T09:53:38.834Z,8.60
2023-07-03T09:56:17.619Z,9.90
2023-07-03T09:58:49.656Z,7.10
2023-07-03T10:07:05.541Z,8.02
2023-07-03T10:12:22.549Z,7.68
2023-07-03T10:15:07.988Z,7.18
2023-07-03T10:17:59.488Z,7.57
2023-07-03T10:20:40.819Z,8.32
2023-07-03T10:23:10.965Z,13.68
2023-07-03T10:25:43.279Z,8.75
2023-07-03T10:28:16.918Z,8.20
2023-07-03T10:30:44.664Z,9.23
2023-07-03T10:33:16.303Z,8.27
2023-07-03T10:35:44.415Z,8.82
2023-07-03T10:38:35.120Z,15.32
2023-07-03T10:41:16.039Z,14.30
2023-07-03T10:43:56.128Z,9.77
2023-07-03T10:46:30.738Z,8.63
2023-07-03T10:49:04.152Z,8.43
2023-07-03T10:51:38.609Z,9.82
2023-07-03T10:54:15.546Z,11.23
2023-07-03T10:56:47.093Z,11.98
2023-07-03T10:59:14.136Z,8.15
2023-07-03T11:02:14.078Z,7.28
2023-07-03T11:04:53.271Z,8.63
2023-07-03T11:07:38.733Z,7.50
2023-07-03T11:10:27.453Z,8.00
2023-07-03T11:13:03.375Z,7.45
2023-07-03T11:15:59.187Z,7.50
2023-07-03T11:24:10.518Z,8.25
2023-07-03T11:29:13.297Z,8.85
2023-07-03T11:31:44.520Z,7.22
2023-07-03T11:37:02.720Z,8.18
2023-07-03T11:44:42.627Z,7.28
2023-07-03T11:47:29.008Z,8.82
2023-07-03T11:50:01.374Z,7.47
2023-07-03T11:52:31.264Z,7.95
2023-07-03T11:55:06.039Z,7.30
2023-07-03T11:57:37.013Z,6.80
2023-07-03T12:00:25.938Z,7.40
2023-07-03T12:03:03.538Z,6.80
2023-07-03T12:05:49.172Z,7.80
2023-07-03T12:08:19.375Z,6.85
2023-07-03T12:10:56.956Z,7.13
2023-07-03T12:13:43.233Z,7.60
2023-07-03T12:16:19.076Z,6.90
2023-07-03T12:18:56.215Z,7.40
2023-07-03T12:21:23.297Z,6.80
2023-07-03T12:23:50.899Z,9.15
2023-07-03T12:26:18.377Z,6.78
2023-07-03T12:28:47.420Z,7.00
2023-07-03T12:31:21.665Z,9.52
2023-07-03T12:34:01.320Z,7.05
2023-07-03T12:36:37.247Z,9.73
2023-07-03T12:39:14.626Z,9.23
2023-07-03T12:41:41.804Z,16.23
2023-07-03T12:44:12.052Z,6.88
2023-07-03T12:46:46.540Z,6.53
2023-07-03T12:49:16.745Z,8.02
2023-07-03T12:51:49.860Z,6.97
2023-07-03T12:54:17.042Z,8.85
2023-07-03T12:56:45.414Z,6.50
2023-07-03T12:59:17.454Z,11.65
2023-07-03T13:01:48.849Z,7.15
2023-07-03T13:04:17.141Z,6.75
2023-07-03T13:06:45.177Z,7.07
2023-07-03T13:09:14.142Z,7.07
2023-07-03T13:11:47.092Z,7.63
2023-07-03T13:14:18.474Z,7.25
2023-07-03T13:16:51.699Z,8.85
2023-07-03T13:19:32.441Z,7.38
2023-07-03T13:22:00.961Z,6.72
2023-07-03T13:24:29.633Z,7.10
2023-07-03T13:26:58.718Z,6.60
2023-07-03T13:29:31.590Z,7.03
2023-07-03T13:32:18.702Z,11.70
2023-07-03T13:34:53.479Z,7.07
2023-07-03T13:37:26.113Z,8.10
2023-07-03T13:40:01.098Z,10.10
2023-07-03T13:42:29.760Z,6.85
2023-07-03T13:44:57.060Z,8.23
2023-07-03T13:47:26.548Z,6.63
2023-07-03T13:49:56.228Z,7.78
2023-07-03T13:52:29.290Z,6.65
2023-07-03T13:54:56.389Z,16.80
2023-07-03T13:57:23.472Z,7.65
2023-07-03T13:59:50.593Z,7.13
2023-07-03T14:02:17.878Z,7.70
2023-07-03T14:04:44.937Z,7.60
2023-07-03T14:07:12.246Z,6.65
2023-07-03T14:09:39.337Z,6.57
2023-07-03T14:12:06.881Z,6.97
2023-07-03T14:14:34.025Z,6.78
2023-07-03T14:17:01.245Z,7.20
2023-07-03T14:19:28.351Z,9.13
2023-07-03T14:21:55.456Z,9.25
2023-07-03T14:24:22.309Z,9.50
2023-07-03T14:26:49.258Z,6.90
2023-07-03T14:29:16.273Z,7.15
2023-07-03T14:31:43.375Z,7.10
2023-07-03T14:34:10.800Z,7.30
2023-07-03T14:36:37.974Z,6.80
2023-07-03T14:39:04.895Z,8.80
2023-07-03T14:41:31.753Z,6.57
2023-07-03T14:43:58.838Z,9.18
2023-07-03T14:46:26.120Z,6.90
2023-07-03T14:48:53.262Z,6.95
2023-07-03T14:51:20.428Z,8.32
2023-07-03T14:53:47.867Z,10.32
2023-07-03T14:56:15.109Z,10.35
2023-07-03T14:58:42.696Z,7.22
2023-07-03T15:01:10.253Z,8.30
2023-07-03T15:03:37.345Z,6.38
2023-07-03T15:06:08.460Z,6.78
2023-07-03T15:08:35.558Z,10.25
2023-07-03T15:11:02.507Z,8.63
2023-07-03T15:13:29.834Z,9.27
2023-07-03T15:15:58.029Z,6.97
2023-07-03T15:18:25.297Z,8.68
2023-07-03T15:20:52.501Z,7.18
2023-07-03T15:23:19.773Z,7.25
2023-07-03T15:25:46.581Z,9.77
2023-07-03T15:28:13.735Z,6.65
2023-07-03T15:30:41.349Z,7.05
2023-07-03T15:33:09.133Z,6.95
2023-07-03T15:35:36.599Z,7.78
2023-07-03T15:38:04.051Z,10.93
2023-07-03T15:40:30.984Z,6.70
2023-07-03T15:42:58.265Z,6.53
2023-07-03T15:45:25.273Z,7.88
2023-07-03T15:47:52.762Z,9.88
2023-07-03T15:50:19.839Z,6.05
2023-07-03T15:52:46.899Z,5.85
2023-07-03T15:55:14.795Z,6.60
2023-07-03T15:57:42.149Z,7.32
2023-07-03T16:00:09.947Z,5.53
2023-07-03T16:02:38.509Z,6.82
2023-07-03T16:05:05.653Z,7.75
2023-07-03T16:07:32.848Z,6.38
2023-07-03T16:09:59.769Z,5.30
2023-07-03T16:12:26.940Z,9.10
2023-07-03T16:14:53.812Z,6.20
2023-07-03T16:17:20.785Z,5.85
2023-07-03T16:20:10.147Z,5.97
2023-07-03T16:22:38.400Z,5.55
2023-07-03T16:25:06.430Z,5.63
2023-07-03T16:27:33.610Z,10.85
2023-07-03T16:30:00.815Z,10.88
2023-07-03T16:32:30.698Z,11.57
2023-07-03T16:34:57.731Z,6.47
2023-07-03T16:37:25.140Z,11.57
2023-07-03T16:39:51.965Z,6.18
2023-07-03T16:42:18.962Z,9.98
2023-07-03T16:44:46.017Z,10.98
2023-07-03T16:47:12.914Z,6.22
2023-07-03T16:49:40.219Z,8.35
2023-07-03T16:52:07.458Z,6.90
2023-07-03T16:54:34.939Z,7.18
2023-07-03T16:57:01.777Z,6.45
2023-07-03T16:59:30.186Z,7.70
2023-07-03T17:01:57.519Z,10.20
2023-07-03T17:04:25.885Z,8.65
2023-07-03T17:06:53.081Z,7.50
2023-07-03T17:09:20.339Z,6.38
2023-07-03T17:11:47.858Z,6.65
2023-07-03T17:14:15.156Z,9.38
2023-07-03T17:16:42.605Z,7.38
2023-07-03T17:19:09.917Z,9.80
2023-07-03T17:21:38.364Z,9.68
2023-07-03T17:24:06.216Z,10.13
2023-07-03T17:26:34.117Z,11.13
2023-07-03T17:29:01.702Z,11.77
2023-07-03T17:31:28.890Z,7.75
2023-07-03T17:33:56.960Z,15.80
2023-07-03T17:36:25.014Z,11.80
2023-07-03T17:38:53.234Z,7.97
2023-07-03T17:41:20.748Z,11.80
2023-07-03T17:43:48.715Z,10.65
2023-07-03T17:46:17.254Z,9.45
2023-07-03T17:48:45.018Z,11.18
2023-07-03T17:51:12.598Z,11.65
2023-07-03T17:53:41.324Z,10.15
2023-07-03T17:56:08.331Z,9.20
2023-07-03T17:58:36.355Z,9.15
2023-07-03T18:01:04.883Z,11.68
2023-07-03T18:03:33.954Z,9.98
2023-07-03T18:06:01.416Z,8.77
2023-07-03T18:08:32.896Z,10.07
2023-07-03T18:11:00.681Z,11.40
2023-07-03T18:13:29.000Z,13.85
2023-07-03T18:15:56.576Z,13.43
2023-07-03T18:18:24.646Z,14.63
2023-07-03T18:20:51.643Z,11.07
2023-07-03T18:23:18.612Z,13.65
2023-07-03T18:25:48.609Z,17.70
2023-07-03T18:28:15.857Z,21.45
2023-07-03T18:30:43.000Z,15.13
2023-07-03T18:33:09.965Z,21.55
2023-07-03T18:35:37.447Z,12.95
2023-07-03T18:38:05.291Z,17.38
2023-07-03T18:40:32.705Z,15.30
2023-07-03T18:43:00.014Z,17.75
2023-07-03T18:45:26.979Z,18.48
2023-07-03T18:47:54.159Z,15.05
2023-07-03T18:50:21.598Z,15.23
2023-07-03T18:52:48.843Z,24.40
2023-07-03T18:55:16.226Z,17.70
2023-07-03T18:57:45.824Z,10.95
2023-07-03T19:00:15.232Z,15.88
2023-07-03T19:02:42.639Z,14.80
2023-07-03T19:05:10.034Z,15.35
2023-07-03T19:07:37.057Z,13.57
2023-07-03T19:10:17.544Z,10.55
2023-07-03T19:12:45.780Z,14.32
2023-07-03T19:15:13.058Z,15.75
2023-07-03T19:17:40.323Z,16.25
2023-07-03T19:20:08.036Z,14.85
2023-07-03T19:22:38.135Z,21.05
2023-07-03T19:25:06.692Z,15.32
2023-07-03T19:27:33.880Z,18.45
2023-07-03T19:30:00.909Z,17.58
2023-07-03T19:32:28.664Z,12.70
2023-07-03T19:34:55.855Z,18.67
2023-07-03T19:37:23.252Z,14.35
2023-07-03T19:39:50.780Z,24.90
2023-07-03T19:42:17.878Z,19.58
2023-07-03T19:44:46.024Z,21.13
2023-07-03T19:47:16.387Z,14.60
2023-07-03T19:49:43.415Z,18.52
2023-07-03T19:52:11.976Z,15.70
2023-07-03T19:54:39.352Z,15.40
2023-07-03T19:57:06.538Z,23.65
2023-07-03T19:59:33.950Z,14.45
2023-07-03T20:02:01.492Z,15.23
2023-07-03T20:04:29.230Z,18.50
2023-07-03T20:06:56.301Z,14.68
2023-07-03T20:09:23.240Z,17.02
2023-07-03T20:11:50.934Z,16.55
2023-07-03T20:14:18.205Z,21.33
2023-07-03T20:16:45.269Z,13.82
2023-07-03T20:19:12.810Z,19.48
2023-07-03T20:21:40.177Z,23.88
2023-07-03T20:24:07.199Z,19.35
2023-07-03T20:26:34.587Z,19.80
2023-07-03T20:29:01.880Z,18.95
2023-07-03T20:31:29.805Z,16.70
2023-07-03T20:33:56.865Z,18.58
2023-07-03T20:36:24.533Z,15.60
2023-07-03T20:38:51.380Z,12.65
2023-07-03T20:41:18.427Z,17.05
2023-07-03T20:43:45.819Z,13.52
2023-07-03T20:46:16.020Z,13.55
2023-07-03T20:48:45.908Z,23.35
2023-07-03T20:51:16.211Z,20.80
2023-07-03T20:53:53.829Z,15.38
2023-07-03T20:56:23.679Z,13.70
2023-07-03T20:58:58.911Z,13.15
2023-07-03T21:01:32.778Z,13.52
2023-07-03T21:04:01.567Z,13.68
2023-07-03T21:06:32.367Z,22.60
2023-07-03T21:09:00.710Z,16.17
2023-07-03T21:11:30.396Z,15.65
2023-07-03T21:14:00.442Z,12.18
2023-07-03T21:16:27.541Z,13.30
2023-07-03T21:18:54.624Z,14.07
2023-07-03T21:21:31.513Z,13.60
2023-07-03T21:24:00.368Z,25.42
2023-07-03T21:26:28.129Z,18.45
2023-07-03T21:28:55.637Z,19.05
2023-07-03T21:31:31.565Z,19.45
2023-07-03T21:33:59.075Z,14.13
2023-07-03T21:36:28.542Z,16.80
2023-07-03T21:39:00.544Z,15.48
2023-07-03T21:41:30.991Z,14.15
2023-07-03T21:44:00.500Z,12.90
2023-07-03T21:46:29.666Z,16.88
2023-07-03T21:48:57.188Z,12.82
2023-07-03T21:51:27.301Z,14.98
2023-07-03T21:53:55.201Z,14.95
2023-07-03T21:56:25.295Z,18.05
2023-07-03T21:58:54.101Z,15.68
2023-07-03T22:01:30.315Z,13.98
2023-07-03T22:03:59.051Z,12.15
2023-07-03T22:06:27.293Z,12.63
2023-07-03T22:08:55.122Z,14.07
2023-07-03T22:11:23.521Z,13.15
2023-07-03T22:13:51.266Z,13.60
2023-07-03T22:16:20.227Z,14.32
2023-07-03T22:18:48.574Z,12.65
2023-07-03T22:21:19.723Z,13.30
2023-07-03T22:23:51.616Z,16.35
2023-07-03T22:26:19.756Z,14.07
2023-07-03T22:28:50.267Z,12.50
2023-07-03T22:31:17.857Z,16.27
2023-07-03T22:33:44.988Z,13.65
2023-07-03T22:36:13.090Z,13.68
2023-07-03T22:38:40.858Z,14.02
2023-07-03T22:41:11.555Z,18.73
2023-07-03T22:43:40.550Z,13.85
2023-07-03T22:46:09.386Z,14.98
2023-07-03T22:48:43.817Z,14.88
2023-07-03T22:51:11.722Z,13.95
2023-07-03T22:53:38.963Z,14.07
2023-07-03T22:56:06.940Z,13.38
2023-07-03T22:58:34.479Z,14.30
2023-07-03T23:01:08.180Z,15.50
2023-07-03T23:03:35.325Z,14.27
2023-07-03T23:06:04.675Z,14.43
2023-07-03T23:08:34.137Z,13.45
2023-07-03T23:11:03.227Z,14.20
2023-07-03T23:13:31.450Z,16.42
2023-07-03T23:16:01.556Z,14.18
2023-07-03T23:18:32.466Z,14.82
2023-07-03T23:21:15.193Z,16.65
2023-07-03T23:23:42.913Z,14.57
2023-07-03T23:26:12.653Z,14.30
2023-07-03T23:28:43.092Z,14.57
2023-07-03T23:31:13.637Z,14.45
2023-07-03T23:33:42.655Z,14.88
2023-07-03T23:36:11.831Z,14.30
2023-07-03T23:38:40.765Z,13.10
2023-07-03T23:41:10.593Z,13.18
2023-07-03T23:43:38.586Z,13.23
2023-07-03T23:46:08.923Z,20.25
2023-07-03T23:48:38.232Z,13.93
2023-07-03T23:51:08.994Z,13.40
2023-07-03T23:53:41.071Z,15.73
2023-07-03T23:56:14.016Z,15.80
2023-07-03T23:58:43.080Z,15.20
